createdAt,value
2023-03-01T00:01:10.165Z,-1.76
2023-03-01T00:03:36.857Z,-1.78
2023-03-01T00:06:04.470Z,-1.88
2023-03-01T00:08:32.126Z,-1.90
2023-03-01T00:11:14.384Z,-1.85
2023-03-01T00:13:41.784Z,-1.95
2023-03-01T00:16:11.730Z,-1.98
2023-03-01T00:18:38.283Z,-2.00
2023-03-01T00:21:06.262Z,-2.05
2023-03-01T00:23:35.161Z,-2.02
2023-03-01T00:26:01.909Z,-2.00
2023-03-01T00:28:28.541Z,-1.96
2023-03-01T00:30:55.247Z,-2.03
2023-03-01T00:33:21.857Z,-2.20
2023-03-01T00:35:48.526Z,-2.18
2023-03-01T00:38:15.104Z,-2.28
2023-03-01T00:40:41.698Z,-2.34
2023-03-01T00:43:09.283Z,-2.23
2023-03-01T00:45:35.975Z,-2.23
2023-03-01T00:48:02.576Z,-2.18
2023-03-01T00:50:29.448Z,-2.20
2023-03-01T00:52:56.807Z,-2.29
2023-03-01T00:55:24.348Z,-2.25
2023-03-01T00:57:50.948Z,-2.27
2023-03-01T01:00:18.061Z,-2.42
2023-03-01T01:02:44.960Z,-2.50
2023-03-01T01:05:11.918Z,-2.57
2023-03-01T01:07:38.690Z,-2.77
2023-03-01T01:10:06.469Z,-2.91
2023-03-01T01:12:33.767Z,-2.99
2023-03-01T01:15:00.375Z,-2.83
2023-03-01T01:17:26.968Z,-2.77
2023-03-01T01:19:53.756Z,-2.82
2023-03-01T01:22:20.360Z,-2.87
2023-03-01T01:24:46.963Z,-2.99
2023-03-01T01:27:13.601Z,-2.94
2023-03-01T01:29:40.186Z,-2.93
2023-03-01T01:32:06.783Z,-3.03
2023-03-01T01:34:33.441Z,-3.08
2023-03-01T01:37:03.683Z,-3.18
2023-03-01T01:39:30.688Z,-3.32
2023-03-01T01:41:57.468Z,-3.31
2023-03-01T01:44:29.407Z,-3.30
2023-03-01T01:47:06.655Z,-3.30
2023-03-01T01:49:43.501Z,-3.28
2023-03-01T01:52:13.100Z,-3.18
2023-03-01T01:54:50.252Z,-3.18
2023-03-01T01:57:22.974Z,-2.83
2023-03-01T01:59:55.615Z,-2.83
2023-03-01T02:02:23.302Z,-2.78
2023-03-01T02:04:53.715Z,-2.71
2023-03-01T02:07:25.625Z,-2.87
2023-03-01T02:09:53.844Z,-3.00
2023-03-01T02:12:25.480Z,-3.07
2023-03-01T02:14:52.235Z,-3.04
2023-03-01T02:17:20.324Z,-3.11
2023-03-01T02:20:08.322Z,-2.98
2023-03-01T02:22:38.465Z,-2.83
2023-03-01T02:25:11.900Z,-2.68
2023-03-01T02:28:01.264Z,-2.60
2023-03-01T02:30:29.548Z,-2.57
2023-03-01T02:33:03.624Z,-2.54
2023-03-01T02:35:33.652Z,-2.50
2023-03-01T02:38:02.696Z,-2.46
2023-03-01T02:40:31.418Z,-2.45
2023-03-01T02:42:59.911Z,-2.41
2023-03-01T02:45:28.290Z,-2.42
2023-03-01T02:47:56.415Z,-2.43
2023-03-01T02:50:31.946Z,-2.42
2023-03-01T02:53:22.979Z,-2.39
2023-03-01T02:55:50.620Z,-2.40
2023-03-01T02:58:17.417Z,-2.40
2023-03-01T03:00:50.322Z,-2.38
2023-03-01T03:03:22.299Z,-2.31
2023-03-01T03:05:49.385Z,-2.34
2023-03-01T03:08:24.953Z,-2.36
2023-03-01T03:10:52.253Z,-2.36
2023-03-01T03:13:20.137Z,-2.40
2023-03-01T03:15:46.891Z,-2.39
2023-03-01T03:18:16.538Z,-2.40
2023-03-01T03:20:44.779Z,-2.44
2023-03-01T03:23:12.368Z,-2.48
2023-03-01T03:25:39.517Z,-2.52
2023-03-01T03:28:10.668Z,-2.54
2023-03-01T03:30:40.323Z,-2.57
2023-03-01T03:33:08.159Z,-2.59
2023-03-01T03:35:41.638Z,-2.59
2023-03-01T03:38:16.456Z,-2.62
2023-03-01T03:41:04.122Z,-2.56
2023-03-01T03:43:32.901Z,-2.59
2023-03-01T03:45:59.609Z,-2.65
2023-03-01T03:48:27.309Z,-2.61
2023-03-01T03:50:56.333Z,-2.63
2023-03-01T03:53:25.756Z,-2.73
2023-03-01T03:55:53.025Z,-2.74
2023-03-01T03:58:21.820Z,-2.71
2023-03-01T04:00:51.320Z,-2.72
2023-03-01T04:03:19.822Z,-2.76
2023-03-01T04:05:48.285Z,-2.75
2023-03-01T04:08:15.284Z,-2.75
2023-03-01T04:10:44.992Z,-2.66
2023-03-01T04:13:14.366Z,-2.67
2023-03-01T04:15:41.812Z,-2.70
2023-03-01T04:18:15.535Z,-2.70
2023-03-01T04:20:42.976Z,-2.72
2023-03-01T04:23:20.872Z,-2.76
2023-03-01T04:25:58.388Z,-2.80
2023-03-01T04:28:27.824Z,-2.78
2023-03-01T04:30:56.569Z,-2.77
2023-03-01T04:33:24.278Z,-2.74
2023-03-01T04:35:51.061Z,-2.72
2023-03-01T04:38:19.462Z,-2.71
2023-03-01T04:40:46.654Z,-2.72
2023-03-01T04:43:16.084Z,-2.75
2023-03-01T04:45:43.216Z,-2.74
2023-03-01T04:48:09.883Z,-2.77
2023-03-01T04:50:36.486Z,-2.76
2023-03-01T04:53:03.632Z,-2.77
2023-03-01T04:55:30.682Z,-2.76
2023-03-01T04:57:57.261Z,-2.74
2023-03-01T05:00:24.559Z,-2.78
2023-03-01T05:03:00.271Z,-2.77
2023-03-01T05:05:29.807Z,-2.82
2023-03-01T05:08:02.362Z,-2.87
2023-03-01T05:10:31.130Z,-2.87
2023-03-01T05:12:58.807Z,-2.89
2023-03-01T05:15:30.541Z,-2.90
2023-03-01T05:18:01.832Z,-2.86
2023-03-01T05:20:31.050Z,-2.94
2023-03-01T05:23:00.695Z,-2.95
2023-03-01T05:25:28.502Z,-2.95
2023-03-01T05:27:55.074Z,-2.97
2023-03-01T05:30:22.584Z,-2.99
2023-03-01T05:32:56.828Z,-3.01
2023-03-01T05:35:23.875Z,-3.03
2023-03-01T05:37:50.759Z,-3.04
2023-03-01T05:40:20.510Z,-3.01
2023-03-01T05:42:49.959Z,-3.01
2023-03-01T05:45:17.650Z,-3.02
2023-03-01T05:47:46.716Z,-3.01
2023-03-01T05:50:24.516Z,-3.04
2023-03-01T05:52:53.711Z,-3.05
2023-03-01T05:55:22.271Z,-3.03
2023-03-01T05:57:50.964Z,-3.05
2023-03-01T06:00:20.511Z,-3.02
2023-03-01T06:02:47.313Z,-3.08
2023-03-01T06:05:16.294Z,-3.05
2023-03-01T06:07:43.351Z,-3.07
2023-03-01T06:10:11.650Z,-3.07
2023-03-01T06:12:39.767Z,-3.16
2023-03-01T06:15:07.811Z,-3.11
2023-03-01T06:17:38.778Z,-3.14
2023-03-01T06:20:13.376Z,-3.14
2023-03-01T06:22:40.289Z,-3.16
2023-03-01T06:25:07.710Z,-3.10
2023-03-01T06:27:34.340Z,-3.13
2023-03-01T06:30:00.968Z,-3.08
2023-03-01T06:32:27.627Z,-3.10
2023-03-01T06:34:54.263Z,-3.06
2023-03-01T06:37:20.892Z,-3.08
2023-03-01T06:39:47.469Z,-3.04
2023-03-01T06:42:14.042Z,-3.01
2023-03-01T06:44:40.647Z,-3.00
2023-03-01T06:47:07.200Z,-3.01
2023-03-01T06:49:33.810Z,-2.97
2023-03-01T06:52:00.433Z,-2.97
2023-03-01T06:54:27.039Z,-2.94
2023-03-01T06:56:53.639Z,-2.92
2023-03-01T06:59:20.492Z,-2.93
2023-03-01T07:01:47.175Z,-2.87
2023-03-01T07:04:14.312Z,-2.88
2023-03-01T07:06:41.321Z,-2.84
2023-03-01T07:09:07.926Z,-2.79
2023-03-01T07:11:34.565Z,-2.75
2023-03-01T07:14:01.150Z,-2.77
2023-03-01T07:16:27.893Z,-2.76
2023-03-01T07:18:55.054Z,-2.68
2023-03-01T07:21:21.637Z,-2.62
2023-03-01T07:23:49.633Z,-2.59
2023-03-01T07:26:16.243Z,-2.57
2023-03-01T07:28:42.877Z,-2.56
2023-03-01T07:31:09.457Z,-2.44
2023-03-01T07:33:36.048Z,-2.35
2023-03-01T07:36:04.954Z,-2.22
2023-03-01T07:38:31.574Z,-2.23
2023-03-01T07:41:03.166Z,-2.11
2023-03-01T07:43:31.042Z,-1.83
2023-03-01T07:46:02.183Z,-1.70
2023-03-01T07:48:29.404Z,-1.56
2023-03-01T07:50:58.580Z,-1.18
2023-03-01T07:53:25.195Z,-0.91
2023-03-01T07:56:01.651Z,-0.45
2023-03-01T07:58:28.218Z,-0.30
2023-03-01T08:00:54.796Z,-0.30
2023-03-01T08:03:21.366Z,-0.10
2023-03-01T08:05:47.944Z,0.03
2023-03-01T08:08:14.501Z,-0.10
2023-03-01T08:10:41.065Z,0.03
2023-03-01T08:13:07.684Z,0.24
2023-03-01T08:15:34.263Z,0.07
2023-03-01T08:18:01.804Z,0.02
2023-03-01T08:20:28.398Z,-0.02
2023-03-01T08:22:55.019Z,0.14
2023-03-01T08:25:21.622Z,-0.02
2023-03-01T08:27:48.208Z,0.07
2023-03-01T08:30:15.066Z,0.17
2023-03-01T08:32:41.723Z,0.10
2023-03-01T08:35:08.838Z,0.59
2023-03-01T08:37:35.418Z,0.61
2023-03-01T08:40:02.104Z,0.74
2023-03-01T08:42:29.052Z,0.79
2023-03-01T08:44:55.659Z,0.96
2023-03-01T08:47:22.250Z,1.04
2023-03-01T08:49:51.273Z,0.75
2023-03-01T08:52:17.976Z,0.59
2023-03-01T08:54:44.634Z,1.25
2023-03-01T08:57:11.293Z,1.20
2023-03-01T08:59:38.391Z,1.13
2023-03-01T09:02:06.963Z,1.32
2023-03-01T09:04:34.364Z,1.27
2023-03-01T09:07:01.015Z,1.29
2023-03-01T09:09:27.616Z,1.10
2023-03-01T09:11:54.217Z,0.99
2023-03-01T09:14:20.784Z,1.23
2023-03-01T09:16:48.063Z,1.36
2023-03-01T09:19:15.080Z,1.35
2023-03-01T09:21:42.432Z,1.21
2023-03-01T09:24:15.814Z,1.35
2023-03-01T09:26:43.428Z,1.50
2023-03-01T09:29:10.759Z,1.57
2023-03-01T09:31:37.783Z,1.74
2023-03-01T09:34:04.396Z,1.58
2023-03-01T09:36:31.247Z,1.85
2023-03-01T09:39:01.521Z,2.14
2023-03-01T09:41:38.047Z,2.26
2023-03-01T09:44:11.812Z,2.17
2023-03-01T09:46:42.802Z,2.18
2023-03-01T09:49:20.408Z,2.54
2023-03-01T09:52:01.426Z,2.48
2023-03-01T09:54:28.345Z,2.43
2023-03-01T09:57:12.571Z,2.41
2023-03-01T10:00:01.826Z,2.64
2023-03-01T10:02:43.949Z,2.68
2023-03-01T10:05:42.282Z,2.75
2023-03-01T10:08:08.829Z,2.57
2023-03-01T10:10:41.164Z,2.47
2023-03-01T10:13:23.802Z,2.54
2023-03-01T10:16:03.033Z,2.31
2023-03-01T10:18:33.669Z,2.52
2023-03-01T10:21:16.861Z,2.39
2023-03-01T10:23:43.711Z,2.66
2023-03-01T10:26:54.346Z,2.61
2023-03-01T10:29:25.960Z,2.80
2023-03-01T10:31:54.871Z,2.59
2023-03-01T10:34:32.338Z,2.54
2023-03-01T10:37:10.084Z,2.48
2023-03-01T10:39:36.721Z,2.70
2023-03-01T10:42:06.263Z,2.79
2023-03-01T10:44:44.921Z,2.95
2023-03-01T10:47:21.762Z,2.88
2023-03-01T10:50:03.523Z,2.54
2023-03-01T10:52:42.224Z,2.65
2023-03-01T10:55:17.909Z,2.85
2023-03-01T10:57:44.516Z,2.74
2023-03-01T11:00:26.139Z,3.04
2023-03-01T11:02:58.492Z,3.02
2023-03-01T11:05:26.697Z,3.14
2023-03-01T11:07:57.428Z,3.37
2023-03-01T11:10:27.949Z,3.38
2023-03-01T11:13:08.119Z,3.43
2023-03-01T11:15:35.020Z,3.25
2023-03-01T11:18:13.428Z,3.39
2023-03-01T11:20:41.043Z,3.34
2023-03-01T11:23:13.333Z,3.33
2023-03-01T11:25:47.114Z,3.31
2023-03-01T11:28:17.402Z,3.42
2023-03-01T11:31:07.722Z,3.17
2023-03-01T11:33:43.230Z,3.35
2023-03-01T11:36:25.163Z,3.39
2023-03-01T11:38:52.388Z,3.58
2023-03-01T11:41:22.818Z,3.45
2023-03-01T11:44:20.755Z,3.41
2023-03-01T11:46:57.533Z,3.54
2023-03-01T11:49:42.718Z,3.87
2023-03-01T11:52:43.689Z,3.91
2023-03-01T11:55:16.106Z,3.97
2023-03-01T11:58:04.584Z,3.61
2023-03-01T12:00:52.636Z,3.99
2023-03-01T12:03:24.841Z,3.89
2023-03-01T12:06:13.320Z,4.05
2023-03-01T12:08:52.272Z,3.92
2023-03-01T12:11:37.827Z,3.85
2023-03-01T12:14:10.353Z,3.87
2023-03-01T12:16:42.627Z,3.96
2023-03-01T12:19:09.247Z,4.03
2023-03-01T12:21:46.538Z,4.34
2023-03-01T12:24:29.349Z,4.17
2023-03-01T12:27:22.977Z,4.09
2023-03-01T12:30:20.547Z,4.38
2023-03-01T12:33:15.519Z,4.19
2023-03-01T12:35:42.051Z,4.13
2023-03-01T12:38:44.791Z,4.18
2023-03-01T12:41:39.307Z,4.20
2023-03-01T12:44:30.004Z,4.29
2023-03-01T12:46:56.530Z,4.27
2023-03-01T12:49:45.662Z,4.40
2023-03-01T12:52:17.704Z,4.31
2023-03-01T12:54:45.573Z,4.35
2023-03-01T12:57:24.156Z,4.50
2023-03-01T13:00:18.534Z,4.36
2023-03-01T13:02:57.271Z,4.55
2023-03-01T13:05:54.752Z,4.73
2023-03-01T13:08:36.055Z,4.86
2023-03-01T13:11:05.282Z,4.85
2023-03-01T13:13:32.932Z,4.89
2023-03-01T13:16:31.937Z,4.73
2023-03-01T13:19:20.045Z,4.93
2023-03-01T13:21:48.135Z,4.87
2023-03-01T13:24:42.589Z,5.06
2023-03-01T13:27:12.031Z,5.16
2023-03-01T13:29:49.372Z,5.03
2023-03-01T13:32:44.429Z,5.14
2023-03-01T13:35:11.712Z,4.99
2023-03-01T13:37:38.938Z,4.96
2023-03-01T13:40:25.549Z,5.11
2023-03-01T13:43:05.204Z,5.08
2023-03-01T13:45:44.174Z,5.27
2023-03-01T13:48:31.481Z,5.24
2023-03-01T13:51:04.585Z,5.24
2023-03-01T13:53:36.727Z,5.45
2023-03-01T13:56:10.195Z,5.36
2023-03-01T13:59:08.080Z,5.20
2023-03-01T14:01:37.442Z,5.30
2023-03-01T14:04:19.277Z,5.34
2023-03-01T14:06:45.846Z,5.34
2023-03-01T14:09:28.546Z,5.41
2023-03-01T14:12:00.879Z,5.46
2023-03-01T14:14:32.988Z,5.56
2023-03-01T14:17:02.328Z,5.65
2023-03-01T14:19:33.528Z,5.65
2023-03-01T14:22:28.243Z,5.44
2023-03-01T14:25:01.420Z,5.48
2023-03-01T14:27:34.270Z,5.62
2023-03-01T14:30:05.474Z,5.55
2023-03-01T14:32:33.591Z,5.72
2023-03-01T14:35:01.248Z,5.55
2023-03-01T14:37:32.202Z,5.62
2023-03-01T14:40:00.828Z,5.56
2023-03-01T14:42:34.594Z,5.50
2023-03-01T14:45:03.389Z,5.48
2023-03-01T14:47:33.199Z,5.53
2023-03-01T14:50:22.366Z,5.61
2023-03-01T14:52:52.839Z,5.77
2023-03-01T14:55:25.658Z,5.79
2023-03-01T14:57:53.278Z,5.63
2023-03-01T15:00:23.933Z,5.51
2023-03-01T15:02:53.683Z,5.62
2023-03-01T15:05:28.697Z,5.69
2023-03-01T15:07:57.481Z,5.72
2023-03-01T15:10:28.359Z,5.58
2023-03-01T15:12:55.064Z,5.52
2023-03-01T15:15:30.964Z,5.65
2023-03-01T15:18:00.768Z,5.71
2023-03-01T15:20:30.245Z,5.67
2023-03-01T15:22:58.538Z,5.63
2023-03-01T15:25:30.956Z,5.68
2023-03-01T15:27:59.542Z,5.64
2023-03-01T15:30:38.298Z,5.56
2023-03-01T15:33:30.450Z,5.63
2023-03-01T15:35:59.083Z,5.61
2023-03-01T15:38:55.153Z,5.59
2023-03-01T15:41:29.126Z,5.53
2023-03-01T15:43:56.732Z,5.56
2023-03-01T15:46:36.202Z,5.56
2023-03-01T15:49:05.904Z,5.53
2023-03-01T15:51:35.440Z,5.41
2023-03-01T15:54:07.245Z,5.35
2023-03-01T15:56:34.179Z,5.33
2023-03-01T15:59:03.293Z,5.25
2023-03-01T16:01:30.536Z,5.11
2023-03-01T16:03:59.083Z,5.14
2023-03-01T16:06:25.926Z,5.12
2023-03-01T16:08:52.494Z,5.07
2023-03-01T16:11:21.473Z,4.98
2023-03-01T16:13:48.914Z,5.00
2023-03-01T16:16:17.470Z,4.94
2023-03-01T16:18:46.537Z,4.86
2023-03-01T16:21:16.633Z,4.82
2023-03-01T16:23:45.420Z,4.76
2023-03-01T16:26:12.105Z,4.67
2023-03-01T16:28:38.652Z,4.62
2023-03-01T16:31:05.574Z,4.61
2023-03-01T16:33:33.841Z,4.54
2023-03-01T16:36:12.283Z,4.50
2023-03-01T16:38:39.572Z,4.38
2023-03-01T16:41:06.515Z,4.31
2023-03-01T16:43:33.286Z,4.23
2023-03-01T16:45:59.970Z,4.12
2023-03-01T16:48:27.192Z,4.13
2023-03-01T16:50:59.082Z,4.04
2023-03-01T16:53:25.683Z,3.87
2023-03-01T16:55:59.526Z,3.71
2023-03-01T16:58:26.436Z,3.64
2023-03-01T17:00:57.425Z,3.64
2023-03-01T17:03:27.032Z,3.55
2023-03-01T17:05:53.730Z,3.57
2023-03-01T17:08:20.362Z,3.47
2023-03-01T17:10:46.964Z,3.42
2023-03-01T17:13:13.585Z,3.37
2023-03-01T17:15:43.423Z,3.51
2023-03-01T17:18:10.441Z,3.43
2023-03-01T17:20:37.361Z,3.32
2023-03-01T17:23:04.520Z,3.24
2023-03-01T17:25:31.100Z,3.16
2023-03-01T17:27:58.182Z,3.19
2023-03-01T17:30:24.804Z,3.07
2023-03-01T17:32:55.748Z,2.89
2023-03-01T17:35:22.740Z,2.89
2023-03-01T17:37:49.743Z,2.83
2023-03-01T17:40:16.615Z,2.98
2023-03-01T17:42:43.253Z,3.03
2023-03-01T17:45:10.255Z,3.05
2023-03-01T17:47:36.872Z,3.01
2023-03-01T17:50:05.594Z,2.92
2023-03-01T17:52:32.385Z,2.79
2023-03-01T17:54:59.083Z,2.76
2023-03-01T17:57:25.687Z,2.66
2023-03-01T17:59:52.260Z,2.64
2023-03-01T18:02:20.433Z,2.55
2023-03-01T18:04:47.606Z,2.51
2023-03-01T18:07:14.293Z,2.41
2023-03-01T18:09:40.855Z,2.47
2023-03-01T18:12:07.595Z,2.61
2023-03-01T18:14:34.349Z,2.64
2023-03-01T18:17:03.892Z,2.59
2023-03-01T18:19:30.505Z,2.59
2023-03-01T18:21:57.130Z,2.50
2023-03-01T18:24:24.009Z,2.51
2023-03-01T18:26:50.578Z,2.64
2023-03-01T18:29:17.185Z,2.61
2023-03-01T18:31:43.828Z,2.49
2023-03-01T18:34:11.928Z,2.43
2023-03-01T18:36:41.369Z,2.49
2023-03-01T18:39:08.682Z,2.41
2023-03-01T18:41:36.599Z,2.34
2023-03-01T18:44:04.857Z,2.28
2023-03-01T18:46:32.045Z,2.27
2023-03-01T18:48:59.254Z,2.25
2023-03-01T18:51:28.204Z,2.33
2023-03-01T18:53:55.284Z,2.28
2023-03-01T18:56:22.039Z,2.24
2023-03-01T18:58:48.738Z,2.16
2023-03-01T19:01:17.703Z,2.19
2023-03-01T19:03:45.227Z,2.19
2023-03-01T19:06:11.992Z,2.10
2023-03-01T19:08:40.832Z,2.07
2023-03-01T19:11:09.426Z,2.02
2023-03-01T19:13:38.402Z,1.92
2023-03-01T19:16:13.786Z,1.95
2023-03-01T19:18:43.330Z,1.97
2023-03-01T19:21:11.545Z,1.90
2023-03-01T19:23:41.194Z,2.03
2023-03-01T19:26:10.365Z,1.87
2023-03-01T19:28:39.452Z,1.90
2023-03-01T19:31:09.154Z,1.86
2023-03-01T19:33:37.133Z,1.80
2023-03-01T19:36:04.264Z,2.02
2023-03-01T19:38:30.948Z,1.94
2023-03-01T19:40:57.777Z,1.91
2023-03-01T19:43:25.114Z,1.88
2023-03-01T19:45:53.218Z,1.82
2023-03-01T19:48:20.420Z,1.78
2023-03-01T19:50:47.221Z,1.79
2023-03-01T19:53:15.214Z,1.79
2023-03-01T19:55:42.590Z,1.75
2023-03-01T19:58:14.508Z,1.78
2023-03-01T20:00:46.992Z,1.72
2023-03-01T20:03:15.042Z,1.65
2023-03-01T20:05:42.938Z,1.69
2023-03-01T20:08:09.679Z,1.72
2023-03-01T20:10:36.274Z,1.57
2023-03-01T20:13:03.032Z,1.57
2023-03-01T20:15:30.303Z,1.54
2023-03-01T20:17:56.921Z,1.51
2023-03-01T20:20:23.652Z,1.58
2023-03-01T20:22:50.420Z,1.47
2023-03-01T20:25:17.494Z,1.51
2023-03-01T20:27:47.809Z,1.42
2023-03-01T20:30:15.821Z,1.33
2023-03-01T20:32:43.243Z,1.23
2023-03-01T20:35:11.397Z,1.25
2023-03-01T20:37:38.419Z,1.22
2023-03-01T20:40:05.686Z,1.21
2023-03-01T20:42:32.279Z,1.17
2023-03-01T20:44:58.851Z,1.11
2023-03-01T20:47:25.495Z,1.14
2023-03-01T20:49:52.508Z,1.10
2023-03-01T20:52:19.401Z,1.08
2023-03-01T20:54:45.994Z,1.00
2023-03-01T20:57:12.576Z,1.05
2023-03-01T20:59:39.189Z,1.01
2023-03-01T21:02:05.943Z,0.93
2023-03-01T21:04:32.545Z,0.91
2023-03-01T21:06:59.208Z,1.03
2023-03-01T21:09:25.824Z,0.93
2023-03-01T21:11:52.386Z,0.92
2023-03-01T21:14:18.998Z,0.90
2023-03-01T21:16:45.862Z,0.88
2023-03-01T21:19:12.815Z,0.84
2023-03-01T21:21:39.517Z,0.91
2023-03-01T21:24:06.718Z,0.88
2023-03-01T21:26:33.695Z,0.78
2023-03-01T21:29:03.973Z,0.69
2023-03-01T21:31:34.789Z,0.62
2023-03-01T21:34:04.750Z,0.58
2023-03-01T21:36:32.871Z,0.61
2023-03-01T21:39:01.896Z,0.62
2023-03-01T21:41:31.849Z,0.57
2023-03-01T21:44:00.869Z,0.57
2023-03-01T21:46:30.932Z,0.64
2023-03-01T21:48:58.707Z,0.57
2023-03-01T21:51:27.306Z,0.60
2023-03-01T21:53:57.498Z,0.53
2023-03-01T21:56:29.710Z,0.56
2023-03-01T21:58:57.764Z,0.50
2023-03-01T22:01:29.249Z,0.42
2023-03-01T22:03:57.628Z,0.48
2023-03-01T22:06:29.731Z,0.46
2023-03-01T22:09:05.822Z,0.36
2023-03-01T22:11:36.032Z,0.27
2023-03-01T22:14:04.833Z,0.23
2023-03-01T22:16:33.799Z,0.14
2023-03-01T22:19:01.096Z,0.02
2023-03-01T22:21:27.847Z,-0.08
2023-03-01T22:23:55.562Z,0.01
2023-03-01T22:26:24.357Z,0.09
2023-03-01T22:28:51.865Z,0.06
2023-03-01T22:31:18.621Z,0.03
2023-03-01T22:33:45.280Z,0.02
2023-03-01T22:36:11.866Z,-0.12
2023-03-01T22:38:39.446Z,-0.25
2023-03-01T22:41:06.270Z,-0.35
2023-03-01T22:43:32.930Z,-0.44
2023-03-01T22:46:00.076Z,-0.35
2023-03-01T22:48:26.837Z,-0.30
2023-03-01T22:50:53.525Z,-0.33
2023-03-01T22:53:20.096Z,-0.40
2023-03-01T22:55:46.677Z,-0.56
2023-03-01T22:58:13.264Z,-0.46
2023-03-01T23:00:39.854Z,-0.54
2023-03-01T23:03:06.550Z,-0.60
2023-03-01T23:05:33.262Z,-0.56
2023-03-01T23:07:59.832Z,-0.63
2023-03-01T23:10:26.537Z,-0.72
2023-03-01T23:12:57.071Z,-0.68
2023-03-01T23:15:23.788Z,-0.54
2023-03-01T23:17:50.349Z,-0.44
2023-03-01T23:20:17.072Z,-0.55
2023-03-01T23:22:43.865Z,-0.69
2023-03-01T23:25:15.009Z,-0.73
2023-03-01T23:27:41.787Z,-0.64
2023-03-01T23:30:09.188Z,-0.55
2023-03-01T23:32:40.433Z,-0.48
2023-03-01T23:35:09.074Z,-0.47
2023-03-01T23:37:35.828Z,-0.36
2023-03-01T23:40:05.927Z,-0.41
2023-03-01T23:42:33.945Z,-0.40
2023-03-01T23:45:00.602Z,-0.42
2023-03-01T23:47:27.224Z,-0.42
2023-03-01T23:49:53.927Z,-0.39
2023-03-01T23:52:20.693Z,-0.40
2023-03-01T23:54:47.298Z,-0.41
2023-03-01T23:57:13.892Z,-0.44
2023-03-01T23:59:41.046Z,-0.39
